Time;durP1;ratioP1;P1;durP2;ratioP2;P2;SDS_P1;SDS_P2;PMS_P1;PMS_P2;Temp;Humidity;BMP_temperature;BMP_pressure;BME280_temperature;BME280_humidity;BME280_pressure;Samples;Min_cycle;Max_cycle;Signal;HPM_P1;HPM_P2
2022/06/22 03:00:34;;;;;;;0.65;0.65;;;28.80;41.20;;;;;;6027426;23;45379;31
2022/06/22 03:03:06;;;;;;;1.08;0.52;;;28.80;41.40;;;;;;4861530;29;45108;-61
2022/06/22 03:05:32;;;;;;;0.52;0.50;;;28.80;41.20;;;;;;4823411;29;46221;-61
2022/06/22 03:07:59;;;;;;;0.32;0.30;;;28.80;41.20;;;;;;4869374;29;45356;-62
2022/06/22 03:10:27;;;;;;;0.40;0.40;;;28.80;41.20;;;;;;4866345;29;45272;-61
2022/06/22 03:12:52;;;;;;;0.50;0.50;;;28.80;41.20;;;;;;4841659;29;46102;-61
2022/06/22 03:15:19;;;;;;;0.50;0.50;;;28.80;41.20;;;;;;4823897;29;45624;-61
2022/06/22 03:17:45;;;;;;;0.50;0.40;;;28.80;41.30;;;;;;4844098;29;47248;-61
2022/06/22 03:20:16;;;;;;;0.52;0.50;;;28.80;41.30;;;;;;4842011;29;45439;-62
2022/06/22 03:22:53;;;;;;;0.63;0.50;;;28.80;41.40;;;;;;4839647;29;45065;-61
2022/06/22 03:25:22;;;;;;;0.40;0.40;;;28.80;41.40;;;;;;4824739;29;45414;-61
2022/06/22 03:27:50;;;;;;;0.60;0.60;;;28.80;41.30;;;;;;4839404;29;46050;-62
2022/06/22 03:30:21;;;;;;;0.55;0.45;;;28.80;41.30;;;;;;4840782;29;45595;-61
2022/06/22 03:32:49;;;;;;;0.40;0.40;;;28.80;41.30;;;;;;4850304;29;45498;-61
2022/06/22 03:35:24;;;;;;;0.35;0.35;;;28.80;41.30;;;;;;4852374;29;45415;-60
2022/06/22 03:38:08;;;;;;;1.67;0.50;;;28.80;41.40;;;;;;4824711;29;47234;-59
2022/06/22 03:40:48;;;;;;;0.40;0.40;;;28.80;41.30;;;;;;4826365;29;45297;-60
2022/06/22 03:43:23;;;;;;;0.43;0.40;;;28.70;41.40;;;;;;4837215;29;45519;-62
2022/06/22 03:45:58;;;;;;;0.55;0.55;;;28.70;41.40;;;;;;4833910;29;45504;-62
2022/06/22 03:48:26;;;;;;;0.40;0.40;;;28.70;41.30;;;;;;4853122;29;47042;-62
2022/06/22 03:50:59;;;;;;;0.73;0.60;;;28.70;41.30;;;;;;4838944;29;45337;-61
2022/06/22 03:53:29;;;;;;;0.70;0.45;;;28.70;41.40;;;;;;4839676;29;45194;-59
2022/06/22 03:55:57;;;;;;;0.50;0.40;;;28.70;41.40;;;;;;4838237;29;45364;-61
2022/06/22 03:58:24;;;;;;;0.43;0.43;;;28.70;41.40;;;;;;4838080;29;47024;-65
2022/06/22 04:00:50;;;;;;;0.40;0.40;;;28.70;41.40;;;;;;4840022;29;45341;-60
2022/06/22 04:03:16;;;;;;;0.75;0.60;;;28.70;41.40;;;;;;4838503;29;45307;-62
2022/06/22 04:06:10;;;;;;;0.57;0.57;;;28.70;41.40;;;;;;4849410;29;45867;-61
2022/06/22 04:08:37;;;;;;;0.50;0.50;;;28.70;41.50;;;;;;4825673;29;45688;-61
2022/06/22 04:11:15;;;;;;;0.57;0.50;;;28.70;41.40;;;;;;4819728;29;45184;-63
2022/06/22 04:13:42;;;;;;;1.25;0.57;;;28.70;41.40;;;;;;4844412;29;45570;-61
2022/06/22 04:16:09;;;;;;;0.32;0.30;;;28.70;41.40;;;;;;4841055;29;45231;-60
2022/06/22 04:18:49;;;;;;;0.65;0.60;;;28.70;41.40;;;;;;4841255;29;46189;-61
2022/06/22 04:21:20;;;;;;;1.77;0.57;;;28.70;42.00;;;;;;4839494;29;45483;-62
2022/06/22 04:24:17;;;;;;;0.50;0.50;;;28.70;41.50;;;;;;4840888;29;45498;-61
2022/06/22 04:26:46;;;;;;;0.60;0.60;;;28.70;41.50;;;;;;4821220;29;45363;-61
2022/06/22 04:29:16;;;;;;;0.57;0.50;;;28.70;41.40;;;;;;4811233;29;47333;-60
2022/06/22 04:31:51;;;;;;;1.48;0.50;;;28.70;41.40;;;;;;4823908;29;45268;-56
2022/06/22 04:34:26;;;;;;;1.58;0.82;;;28.70;40.70;;;;;;4845324;29;45546;-58
2022/06/22 04:36:54;;;;;;;2.25;1.17;;;28.70;39.40;;;;;;4836113;29;45652;-53
2022/06/22 04:39:33;;;;;;;2.38;1.00;;;28.60;39.20;;;;;;4828036;29;46034;-60
2022/06/22 04:42:00;;;;;;;1.65;1.02;;;28.50;38.50;;;;;;4837911;29;44802;-59
2022/06/22 04:44:28;;;;;;;2.70;1.45;;;28.50;38.80;;;;;;4836271;29;46202;-56
2022/06/22 04:46:56;;;;;;;2.90;1.50;;;28.40;38.50;;;;;;4820437;29;45019;-58
2022/06/22 04:49:31;;;;;;;5.05;1.48;;;28.40;38.40;;;;;;4855465;29;45294;-59
2022/06/22 04:52:02;;;;;;;1.65;1.13;;;28.40;38.30;;;;;;4833721;29;45432;-59
2022/06/22 04:54:32;;;;;;;2.85;1.15;;;28.40;38.80;;;;;;4820526;29;45545;-59
2022/06/22 04:57:01;;;;;;;1.83;1.05;;;28.40;38.00;;;;;;4831441;29;45524;-59
2022/06/22 04:59:26;;;;;;;1.70;1.15;;;28.40;38.00;;;;;;4847171;29;46057;-59
2022/06/22 05:01:59;;;;;;;5.07;1.20;;;28.30;37.70;;;;;;4849523;29;44955;-60
2022/06/22 05:04:31;;;;;;;2.95;0.88;;;28.30;37.00;;;;;;4826501;29;45318;-58
2022/06/22 05:07:17;;;;;;;2.70;0.93;;;28.20;37.10;;;;;;4851054;29;45596;-59
2022/06/22 05:09:46;;;;;;;1.85;1.00;;;28.10;36.50;;;;;;4842538;29;46237;-58
2022/06/22 05:12:19;;;;;;;3.92;1.00;;;28.10;36.80;;;;;;4838583;29;45675;-59
2022/06/22 05:14:45;;;;;;;;;;;28.10;36.50;;;;;;4839789;29;44703;-58
2022/06/22 05:17:22;;;;;;;1.33;0.90;;;28.00;35.50;;;;;;4838746;29;45256;-60
2022/06/22 05:19:51;;;;;;;1.55;0.80;;;28.00;36.10;;;;;;4838981;29;45319;-58
2022/06/22 05:22:18;;;;;;;2.25;1.02;;;27.90;36.40;;;;;;4842009;29;45497;-59
2022/06/22 05:24:45;;;;;;;1.27;0.98;;;28.00;36.50;;;;;;4844334;29;45280;-56
2022/06/22 05:27:13;;;;;;;1.25;0.77;;;28.00;36.30;;;;;;4839500;29;45196;-59
2022/06/22 05:29:41;;;;;;;0.95;0.65;;;28.00;36.20;;;;;;4839898;29;46909;-59
2022/06/22 05:32:10;;;;;;;2.28;0.80;;;28.00;36.20;;;;;;4836868;29;44615;-59
2022/06/22 05:34:38;;;;;;;3.92;1.23;;;28.00;36.20;;;;;;4836716;29;44973;-57
2022/06/22 05:37:04;;;;;;;2.70;1.05;;;28.00;36.00;;;;;;4839134;29;45180;-59
2022/06/22 05:39:34;;;;;;;6.13;1.00;;;28.00;36.00;;;;;;4837257;29;46435;-59
2022/06/22 05:41:59;;;;;;;4.55;1.27;;;28.10;36.00;;;;;;4854214;29;46196;-58
2022/06/22 05:44:25;;;;;;;0.95;0.85;;;28.10;36.00;;;;;;4844026;29;44965;-59
2022/06/22 05:46:53;;;;;;;2.47;0.93;;;28.10;36.00;;;;;;4849488;29;45436;-58
2022/06/22 05:49:19;;;;;;;2.58;0.80;;;28.10;36.00;;;;;;4839333;29;46255;-59
2022/06/22 05:51:59;;;;;;;2.58;0.98;;;28.00;36.40;;;;;;4845848;29;44698;-58
2022/06/22 05:54:36;;;;;;;2.78;0.80;;;28.00;35.40;;;;;;4841142;29;46189;-57
2022/06/22 05:57:07;;;;;;;1.92;0.95;;;28.00;35.80;;;;;;4836913;29;45290;-60
2022/06/22 05:59:41;;;;;;;1.63;0.98;;;28.00;35.80;;;;;;4842628;29;46146;-58
2022/06/22 06:02:18;;;;;;;2.85;0.90;;;28.00;35.60;;;;;;4844099;29;45546;-57
2022/06/22 06:04:48;;;;;;;4.00;0.90;;;28.00;35.70;;;;;;4824807;29;45420;-67
2022/06/22 06:07:18;;;;;;;3.85;1.08;;;28.00;35.80;;;;;;4838353;29;45496;-60
2022/06/22 06:09:43;;;;;;;3.72;1.10;;;28.00;35.90;;;;;;4839230;29;46820;-62
2022/06/22 06:12:14;;;;;;;2.45;1.02;;;28.00;36.10;;;;;;4840534;29;45136;-65
2022/06/22 06:14:41;;;;;;;0.98;0.85;;;28.00;36.00;;;;;;4815197;29;44710;-63
2022/06/22 06:17:10;;;;;;;4.78;1.20;;;28.00;36.00;;;;;;4853800;29;45466;-63
2022/06/22 06:19:38;;;;;;;4.10;1.00;;;28.00;36.10;;;;;;4856964;29;47033;-61
2022/06/22 06:22:04;;;;;;;3.70;1.25;;;28.10;36.10;;;;;;4854660;29;44990;-65
2022/06/22 06:27:34;;;;;;;1.58;0.95;;;28.10;36.10;;;;;;4827902;29;44904;-63
2022/06/22 06:27:35;;;;;;;3.85;1.13;;;28.10;35.80;;;;;;4846599;29;45567;-62
2022/06/22 06:30:24;;;;;;;1.98;1.20;;;28.10;36.00;;;;;;4836509;29;46052;-63
2022/06/22 06:33:15;;;;;;;2.40;0.77;;;28.20;35.90;;;;;;4832429;29;44662;-61
2022/06/22 06:35:55;;;;;;;1.60;1.00;;;28.20;36.00;;;;;;4840379;29;44973;-61
2022/06/22 06:38:33;;;;;;;3.45;0.80;;;28.20;36.00;;;;;;4842783;29;45356;-60
2022/06/22 06:41:08;;;;;;;3.70;1.00;;;28.20;36.20;;;;;;4836085;29;46111;-60
2022/06/22 06:43:42;;;;;;;2.03;0.90;;;28.20;36.20;;;;;;4839690;29;45641;-61
2022/06/22 06:46:23;;;;;;;1.70;1.00;;;28.30;36.20;;;;;;4821571;29;45519;-61
2022/06/22 06:49:11;;;;;;;2.03;1.08;;;28.30;35.90;;;;;;4840810;29;45247;-61
2022/06/22 06:51:39;;;;;;;3.55;1.30;;;28.30;35.80;;;;;;4806069;29;46299;-61
2022/06/22 06:54:20;;;;;;;6.90;1.20;;;28.40;36.10;;;;;;4852220;29;45663;-64
2022/06/22 06:56:59;;;;;;;5.03;0.88;;;28.40;36.00;;;;;;4855274;29;45393;-64
2022/06/22 06:59:27;;;;;;;2.83;1.00;;;28.40;36.20;;;;;;4846175;29;44889;-63
2022/06/22 07:01:53;;;;;;;5.15;1.15;;;28.50;36.10;;;;;;4837672;29;46195;-63
2022/06/22 07:04:30;;;;;;;1.60;0.95;;;28.40;36.00;;;;;;4840870;29;45220;-60
2022/06/22 07:07:03;;;;;;;3.28;1.10;;;28.50;36.00;;;;;;4844397;29;45178;-63
2022/06/22 07:09:31;;;;;;;4.05;1.20;;;28.50;36.00;;;;;;4841039;29;46725;-59
2022/06/22 07:12:17;;;;;;;2.15;1.17;;;28.50;36.10;;;;;;4822242;29;46060;-62
2022/06/22 07:14:43;;;;;;;4.05;0.80;;;28.60;36.10;;;;;;4821052;29;45367;-62
2022/06/22 07:17:13;;;;;;;1.90;1.20;;;28.60;36.10;;;;;;4836842;29;45973;-67
2022/06/22 07:19:43;;;;;;;2.33;1.20;;;28.60;36.20;;;;;;4813465;29;45501;-63
2022/06/22 07:22:20;;;;;;;4.25;1.00;;;28.70;36.20;;;;;;4825024;29;47991;-69
2022/06/22 07:25:06;;;;;;;2.05;0.90;;;28.70;36.10;;;;;;4836109;29;45448;-61
2022/06/22 07:27:59;;;;;;;4.13;0.80;;;28.70;36.20;;;;;;4836788;29;44909;-62
2022/06/22 07:30:37;;;;;;;1.27;0.98;;;28.80;36.10;;;;;;4838009;29;45938;-59
2022/06/22 07:33:21;;;;;;;2.08;1.15;;;28.80;36.30;;;;;;4838784;29;46150;-61
2022/06/22 07:35:54;;;;;;;1.73;0.90;;;28.80;36.20;;;;;;4838248;29;44626;-60
2022/06/22 07:38:26;;;;;;;3.88;1.00;;;28.80;36.30;;;;;;4842260;29;45057;-61
2022/06/22 07:43:36;;;;;;;2.65;1.20;;;28.90;36.30;;;;;;4842303;29;46044;-64
2022/06/22 07:46:01;;;;;;;2.95;0.77;;;28.90;36.30;;;;;;4843084;29;45257;-62
2022/06/22 07:48:27;;;;;;;2.92;1.10;;;28.90;36.20;;;;;;4843835;29;45657;-63
2022/06/22 07:50:55;;;;;;;2.90;1.00;;;28.90;36.30;;;;;;4848881;29;45152;-60
2022/06/22 07:53:47;;;;;;;1.85;1.05;;;28.90;36.20;;;;;;4844262;29;47219;-62
2022/06/22 07:56:14;;;;;;;4.10;1.00;;;28.90;36.10;;;;;;4842356;29;45564;-64
2022/06/22 07:58:47;;;;;;;5.20;1.35;;;29.00;36.30;;;;;;4846853;29;45558;-61
2022/06/22 08:01:16;;;;;;;2.67;0.88;;;29.00;36.30;;;;;;4842840;29;46500;-60
2022/06/22 08:03:45;;;;;;;3.45;1.10;;;29.00;36.10;;;;;;4826835;29;45529;-60
2022/06/22 08:06:31;;;;;;;2.83;0.95;;;29.10;35.90;;;;;;4828558;29;44991;-62
2022/06/22 08:09:03;;;;;;;5.43;1.15;;;29.00;35.50;;;;;;4846518;29;45572;-62
2022/06/22 08:11:35;;;;;;;2.65;1.05;;;29.00;35.90;;;;;;4840653;29;45676;-63
2022/06/22 08:14:10;;;;;;;2.97;1.10;;;29.00;35.90;;;;;;4840160;29;47017;-65
2022/06/22 08:16:48;;;;;;;2.00;1.05;;;29.00;36.00;;;;;;4840725;29;44685;-63
2022/06/22 08:19:14;;;;;;;3.45;1.20;;;29.00;35.90;;;;;;4843114;29;45141;-66
2022/06/22 08:21:44;;;;;;;1.52;0.75;;;29.00;36.00;;;;;;4837415;29;45561;-66
2022/06/22 08:24:13;;;;;;;3.60;1.27;;;29.10;36.00;;;;;;4830483;29;45594;-64
2022/06/22 08:26:39;;;;;;;1.98;1.10;;;29.20;36.10;;;;;;4827675;29;45302;-61
2022/06/22 08:29:04;;;;;;;2.13;1.50;;;29.20;36.10;;;;;;4828996;29;45360;-61
2022/06/22 08:31:39;;;;;;;3.30;1.10;;;29.10;36.00;;;;;;4823876;29;45433;-62
2022/06/22 08:34:07;;;;;;;2.10;1.20;;;29.20;36.10;;;;;;4831854;29;46000;-61
2022/06/22 08:36:48;;;;;;;4.70;1.25;;;29.20;36.00;;;;;;4841074;29;44994;-63
2022/06/22 08:39:18;;;;;;;5.10;1.20;;;29.20;36.00;;;;;;4844960;29;45305;-67
2022/06/22 08:41:49;;;;;;;2.83;1.08;;;29.20;35.90;;;;;;4842811;29;45414;-63
2022/06/22 08:44:30;;;;;;;1.60;0.88;;;29.20;35.90;;;;;;4846863;29;46238;-65
2022/06/22 08:47:04;;;;;;;3.63;0.90;;;29.20;36.00;;;;;;4843492;29;45230;-64
2022/06/22 08:49:43;;;;;;;2.95;1.20;;;29.20;36.00;;;;;;4851406;29;45270;-64
2022/06/22 08:52:33;;;;;;;1.40;0.90;;;29.20;36.00;;;;;;4851060;29;44692;-65
2022/06/22 08:55:05;;;;;;;2.72;1.20;;;29.30;36.00;;;;;;4833339;29;45985;-61
2022/06/22 08:58:01;;;;;;;2.58;1.15;;;29.30;36.00;;;;;;4844038;29;45532;-64
2022/06/22 09:00:54;;;;;;;2.88;1.27;;;29.30;36.00;;;;;;4840171;29;44969;-63
2022/06/22 09:03:44;;;;;;;4.17;1.20;;;29.20;35.90;;;;;;4839975;29;44963;-63
2022/06/22 09:06:19;;;;;;;7.07;1.23;;;29.30;35.90;;;;;;4825701;29;45934;-63
2022/06/22 09:08:54;;;;;;;2.00;0.98;;;29.30;36.70;;;;;;4840727;29;45427;-61
2022/06/22 09:11:37;;;;;;;4.43;1.30;;;29.30;36.20;;;;;;4841999;29;45518;-65
2022/06/22 09:14:16;;;;;;;2.72;1.25;;;29.40;36.20;;;;;;4840398;29;45189;-64
2022/06/22 09:17:14;;;;;;;4.75;1.27;;;29.40;36.00;;;;;;4853375;29;46044;-63
2022/06/22 09:19:58;;;;;;;1.55;1.20;;;29.40;36.10;;;;;;4835943;29;44679;-62
2022/06/22 09:22:53;;;;;;;2.83;1.35;;;29.40;36.00;;;;;;4837445;29;45260;-63
2022/06/22 09:25:29;;;;;;;5.07;1.50;;;29.50;36.00;;;;;;4846974;29;44684;-63
2022/06/22 09:28:03;;;;;;;2.75;1.20;;;29.50;36.10;;;;;;4842120;29;45988;-64
2022/06/22 09:30:49;;;;;;;4.70;1.45;;;29.50;35.80;;;;;;4839353;29;45399;-63
2022/06/22 09:33:15;;;;;;;2.70;1.10;;;29.50;36.00;;;;;;4858326;29;44807;-64
2022/06/22 09:36:16;;;;;;;2.30;1.17;;;29.50;35.80;;;;;;4841724;29;44707;-64
2022/06/22 09:39:03;;;;;;;4.75;1.17;;;29.60;35.80;;;;;;4818417;29;45198;-63
2022/06/22 09:41:50;;;;;;;4.68;1.65;;;29.60;35.60;;;;;;4843395;29;45213;-61
2022/06/22 09:44:28;;;;;;;2.30;1.50;;;29.60;35.80;;;;;;4841889;29;44662;-64
2022/06/22 09:46:56;;;;;;;1.90;1.27;;;29.60;35.60;;;;;;4839075;29;45512;-63
2022/06/22 09:49:44;;;;;;;4.53;1.27;;;29.70;35.80;;;;;;4839164;29;46189;-63
2022/06/22 09:52:31;;;;;;;2.47;1.33;;;29.70;35.50;;;;;;4842941;29;45264;-61
2022/06/22 09:58:03;;;;;;;4.07;1.45;;;29.70;35.60;;;;;;4844396;29;45439;-61
2022/06/22 10:00:36;;;;;;;2.70;1.40;;;29.80;35.80;;;;;;4839664;29;45449;-62
2022/06/22 10:03:27;;;;;;;4.82;1.38;;;29.80;35.80;;;;;;4858371;29;45364;-61
2022/06/22 10:05:55;;;;;;;3.58;1.35;;;29.80;35.80;;;;;;4852567;29;45313;-60
2022/06/22 10:08:48;;;;;;;3.35;1.45;;;29.80;35.90;;;;;;4844391;29;45109;-62
2022/06/22 10:11:36;;;;;;;2.35;1.20;;;29.80;35.60;;;;;;4842921;29;45597;-61
2022/06/22 10:14:06;;;;;;;2.67;1.42;;;29.80;35.60;;;;;;4827587;29;44687;-63
2022/06/22 10:17:06;;;;;;;2.85;1.42;;;29.80;35.50;;;;;;4832002;29;45218;-61
2022/06/22 10:19:53;;;;;;;2.38;1.42;;;29.80;35.20;;;;;;4843221;29;45399;-60
2022/06/22 10:22:41;;;;;;;3.88;1.67;;;29.80;35.50;;;;;;4846804;29;46144;-60
2022/06/22 10:25:17;;;;;;;3.95;1.75;;;29.80;35.60;;;;;;4850036;29;45412;-66
2022/06/22 10:27:52;;;;;;;5.28;1.50;;;29.80;35.50;;;;;;4831018;29;45176;-59
2022/06/22 10:30:33;;;;;;;2.63;1.48;;;29.80;35.50;;;;;;4841587;29;45291;-58
2022/06/22 10:33:57;;;;;;;4.72;1.52;;;29.90;35.60;;;;;;4845138;29;46496;-60
2022/06/22 10:36:35;;;;;;;2.53;1.63;;;29.90;35.40;;;;;;4788319;29;45354;-59
2022/06/22 10:39:21;;;;;;;2.40;1.58;;;29.90;35.50;;;;;;4782097;29;45324;-59
2022/06/22 10:45:12;;;;;;;6.85;1.70;;;29.90;35.30;;;;;;4850681;29;46056;-63
2022/06/22 10:47:59;;;;;;;3.80;1.65;;;30.00;35.00;;;;;;4850149;29;45255;-58
2022/06/22 10:50:47;;;;;;;2.50;1.40;;;29.90;35.20;;;;;;4841817;29;46828;-59
2022/06/22 10:53:38;;;;;;;3.95;1.63;;;29.90;35.60;;;;;;4852095;29;45628;-60
2022/06/22 10:56:17;;;;;;;3.40;1.58;;;29.90;35.10;;;;;;4843601;29;45700;-66
2022/06/22 10:58:51;;;;;;;3.20;1.90;;;29.90;35.40;;;;;;4840969;29;45278;-62
2022/06/22 11:01:29;;;;;;;3.33;1.65;;;30.00;35.30;;;;;;4842681;29;45248;-61
2022/06/22 11:04:19;;;;;;;4.20;1.60;;;30.00;35.30;;;;;;4828770;29;46391;-65
2022/06/22 11:07:22;;;;;;;3.22;1.50;;;30.00;35.40;;;;;;4840732;29;45988;-59
2022/06/22 11:09:47;;;;;;;5.10;1.77;;;30.00;35.10;;;;;;4844159;29;44641;-60
2022/06/22 11:12:22;;;;;;;2.47;1.60;;;30.00;35.40;;;;;;4844990;29;45340;-62
2022/06/22 11:15:25;;;;;;;3.53;1.83;;;30.00;35.40;;;;;;4846703;29;45090;-58
2022/06/22 11:18:10;;;;;;;3.85;1.50;;;30.10;35.40;;;;;;4867834;29;46114;-58
2022/06/22 11:20:46;;;;;;;3.40;1.50;;;30.10;35.30;;;;;;4847969;29;44832;-57
2022/06/22 11:23:16;;;;;;;2.55;1.48;;;30.10;35.40;;;;;;4852102;29;46200;-59
2022/06/22 11:32:02;;;;;;;2.13;1.48;;;30.10;35.70;;;;;;4841574;29;45328;-55
2022/06/22 11:34:33;;;;;;;2.55;1.40;;;30.10;35.60;;;;;;4846721;29;45522;-56
2022/06/22 11:37:34;;;;;;;2.95;1.48;;;30.10;35.70;;;;;;4842226;29;45055;-55
2022/06/22 11:40:37;;;;;;;1.73;1.38;;;30.10;35.80;;;;;;4842523;29;45905;-55
2022/06/22 11:43:25;;;;;;;4.82;1.60;;;30.10;35.70;;;;;;4841028;29;45307;-58
2022/06/22 11:46:18;;;;;;;4.90;1.85;;;30.20;35.70;;;;;;4810178;29;45414;-55
2022/06/22 11:49:02;;;;;;;2.63;1.65;;;30.20;35.30;;;;;;4832879;29;45275;-56
2022/06/22 11:51:53;;;;;;;5.15;1.58;;;30.20;35.70;;;;;;4840642;29;45261;-53
2022/06/22 11:54:42;;;;;;;2.15;1.70;;;30.20;35.70;;;;;;4840440;29;45475;-56
2022/06/22 11:57:28;;;;;;;4.22;1.40;;;30.20;35.80;;;;;;4840435;29;45699;-55
2022/06/22 12:00:12;;;;;;;3.15;1.67;;;30.20;35.90;;;;;;4826422;29;44702;-54
2022/06/22 12:03:04;;;;;;;1.85;1.40;;;30.20;35.90;;;;;;4836056;29;46485;-56
2022/06/22 12:05:34;;;;;;;1.60;1.50;;;30.20;35.60;;;;;;4841867;29;45427;-58
2022/06/22 12:08:27;;;;;;;3.63;1.50;;;30.30;35.80;;;;;;4842893;29;44719;-54
2022/06/22 12:11:11;;;;;;;3.72;1.90;;;30.30;35.70;;;;;;4837137;29;45016;-61
2022/06/22 12:15:04;;;;;;;1.88;1.77;;;30.30;35.60;;;;;;4844388;29;46018;-54
2022/06/22 12:16:47;;;;;;;2.72;1.80;;;30.30;35.80;;;;;;4838655;29;45452;-54
2022/06/22 12:19:44;;;;;;;3.50;1.85;;;30.40;35.80;;;;;;4840555;29;45326;-58
2022/06/22 12:22:28;;;;;;;3.40;1.65;;;30.40;35.90;;;;;;4838387;29;45572;-57
2022/06/22 12:25:18;;;;;;;3.80;1.90;;;30.40;35.60;;;;;;4840040;29;46223;-57
2022/06/22 12:27:59;;;;;;;3.20;2.00;;;30.40;35.60;;;;;;4846836;29;45508;-59
2022/06/22 12:30:47;;;;;;;4.60;1.70;;;30.40;35.70;;;;;;4841121;29;45488;-55
2022/06/22 12:33:33;;;;;;;4.93;2.00;;;30.50;35.50;;;;;;4837969;29;45322;-58
2022/06/22 12:36:12;;;;;;;4.28;1.50;;;30.50;35.70;;;;;;4827455;29;45692;-56
2022/06/22 12:38:46;;;;;;;2.63;1.88;;;30.50;35.90;;;;;;4851651;29;44762;-55
2022/06/22 12:41:23;;;;;;;2.72;1.80;;;30.40;35.70;;;;;;4824054;29;45545;-59
2022/06/22 12:43:49;;;;;;;4.40;2.00;;;30.50;35.60;;;;;;4840460;29;45608;-57
2022/06/22 12:46:38;;;;;;;2.88;1.63;;;30.50;35.60;;;;;;4840222;29;45948;-57
2022/06/22 12:49:35;;;;;;;3.72;1.70;;;30.50;35.70;;;;;;4841059;29;44683;-57
2022/06/22 12:52:16;;;;;;;2.20;1.60;;;30.50;35.70;;;;;;4835603;29;45447;-54
2022/06/22 12:54:54;;;;;;;2.95;1.65;;;30.40;35.90;;;;;;4839123;29;44868;-55
2022/06/22 12:57:23;;;;;;;1.65;1.55;;;30.50;36.00;;;;;;4856918;29;46042;-58
2022/06/22 13:00:03;;;;;;;3.05;1.95;;;30.40;36.60;;;;;;4853192;29;45537;-57
2022/06/22 13:02:30;;;;;;;3.72;2.22;;;30.50;36.00;;;;;;4840801;29;48198;-57
2022/06/22 13:05:12;;;;;;;2.17;1.70;;;30.40;36.00;;;;;;4838398;29;45574;-58
2022/06/22 13:07:44;;;;;;;4.10;1.77;;;30.50;35.50;;;;;;4850731;29;45917;-56
2022/06/22 13:10:15;;;;;;;2.97;1.73;;;30.50;35.90;;;;;;4848471;29;45440;-58
2022/06/22 13:12:56;;;;;;;2.72;1.92;;;30.50;35.90;;;;;;4838604;29;45460;-56
2022/06/22 13:15:29;;;;;;;2.20;1.65;;;30.50;35.90;;;;;;4840753;29;45035;-56
2022/06/22 13:18:17;;;;;;;4.95;2.10;;;30.50;36.10;;;;;;4841260;29;46255;-56
2022/06/22 13:20:46;;;;;;;4.50;1.90;;;30.50;35.80;;;;;;4843782;29;45291;-53
2022/06/22 13:23:31;;;;;;;2.20;1.65;;;30.50;35.90;;;;;;4840372;29;45202;-56
2022/06/22 13:26:19;;;;;;;2.10;1.90;;;30.40;35.70;;;;;;4837948;29;45125;-57
2022/06/22 13:29:04;;;;;;;3.40;2.05;;;30.50;35.90;;;;;;4838687;29;45929;-58
2022/06/22 13:31:32;;;;;;;5.00;1.85;;;30.50;35.70;;;;;;4835495;29;45387;-55
2022/06/22 13:34:04;;;;;;;5.03;2.10;;;30.60;35.70;;;;;;4855249;29;45499;-54
2022/06/22 13:36:32;;;;;;;3.30;1.92;;;30.60;35.80;;;;;;4840136;29;45446;-58
2022/06/22 13:39:11;;;;;;;2.80;1.70;;;30.50;35.80;;;;;;4833181;29;46348;-58
2022/06/22 13:41:45;;;;;;;2.63;1.67;;;30.50;36.00;;;;;;4810978;29;45289;-57
2022/06/22 13:44:43;;;;;;;6.85;1.65;;;30.50;36.00;;;;;;4840039;29;45584;-57
2022/06/22 13:47:32;;;;;;;2.85;1.70;;;30.50;36.10;;;;;;4823980;29;45192;-57
2022/06/22 13:50:34;;;;;;;3.03;1.70;;;30.50;35.90;;;;;;4832901;29;45965;-59
2022/06/22 13:53:17;;;;;;;3.08;1.73;;;30.50;35.60;;;;;;4842694;29;45344;-59
2022/06/22 13:55:53;;;;;;;3.13;1.70;;;30.50;35.40;;;;;;4824183;29;45302;-57
2022/06/22 13:58:29;;;;;;;4.50;1.73;;;30.50;35.70;;;;;;4845310;29;46222;-58
2022/06/22 14:01:03;;;;;;;2.05;1.65;;;30.50;35.70;;;;;;4838637;29;45936;-58
2022/06/22 14:03:48;;;;;;;3.65;2.00;;;30.50;35.70;;;;;;4836266;29;45136;-57
2022/06/22 14:06:18;;;;;;;2.30;1.80;;;30.60;35.50;;;;;;4835972;29;45301;-55
2022/06/22 14:09:05;;;;;;;3.85;1.85;;;30.50;35.60;;;;;;4833607;29;44731;-56
2022/06/22 14:11:52;;;;;;;4.07;1.60;;;30.60;35.60;;;;;;4844874;29;45953;-56
2022/06/22 14:14:42;;;;;;;2.95;1.88;;;30.60;35.70;;;;;;4837915;29;44994;-57
2022/06/22 14:17:11;;;;;;;4.70;1.50;;;30.50;35.90;;;;;;4839718;29;45214;-56
2022/06/22 14:19:43;;;;;;;5.28;2.08;;;30.50;36.00;;;;;;4826861;29;45311;-57
2022/06/22 14:22:33;;;;;;;3.25;2.22;;;30.60;36.30;;;;;;4839599;29;46261;-56
2022/06/22 14:24:59;;;;;;;5.43;2.22;;;30.60;36.60;;;;;;4841076;29;45281;-56
2022/06/22 14:27:27;;;;;;;3.75;2.00;;;30.60;36.70;;;;;;4837233;29;46009;-56
2022/06/22 14:30:08;;;;;;;4.85;2.42;;;30.60;36.80;;;;;;4841087;29;45581;-55
2022/06/22 14:33:04;;;;;;;5.20;2.53;;;30.60;37.50;;;;;;4823601;29;47174;-60
2022/06/22 14:35:42;;;;;;;4.93;2.08;;;30.60;38.50;;;;;;4839434;29;45441;-55
2022/06/22 14:38:13;;;;;;;5.63;2.83;;;30.60;38.90;;;;;;4838567;29;45520;-59
2022/06/22 14:40:43;;;;;;;3.40;2.47;;;30.50;39.00;;;;;;4829225;29;45556;-60
2022/06/22 14:43:15;;;;;;;6.95;2.95;;;30.40;39.40;;;;;;4832049;29;46041;-59
2022/06/22 14:45:44;;;;;;;5.32;2.22;;;30.40;40.30;;;;;;4822847;29;45916;-59
2022/06/22 14:48:16;;;;;;;5.25;2.60;;;30.40;40.60;;;;;;4856369;29;46386;-58
2022/06/22 14:50:55;;;;;;;3.47;2.50;;;30.30;41.10;;;;;;4836248;29;45735;-56
2022/06/22 14:53:39;;;;;;;3.60;2.47;;;30.30;42.10;;;;;;4807526;29;47130;-58
2022/06/22 14:56:21;;;;;;;3.95;2.72;;;30.30;42.60;;;;;;4813682;29;45379;-57
2022/06/22 14:58:57;;;;;;;5.23;2.63;;;30.20;42.30;;;;;;4797799;29;45308;-58
2022/06/22 15:01:26;;;;;;;4.53;2.80;;;30.10;42.50;;;;;;4829120;29;45642;-56
2022/06/22 15:04:04;;;;;;;7.10;2.67;;;30.10;41.90;;;;;;4843897;29;47349;-60
2022/06/22 15:06:48;;;;;;;8.77;2.55;;;30.10;42.70;;;;;;4830087;29;45546;-58
2022/06/22 15:09:21;;;;;;;4.38;2.47;;;30.10;42.90;;;;;;4830030;29;45587;-59
2022/06/22 15:14:55;;;;;;;4.53;2.35;;;30.00;42.50;;;;;;4814904;29;45653;-58
2022/06/22 15:17:45;;;;;;;7.05;2.70;;;30.00;43.50;;;;;;4828447;29;44743;-58
2022/06/22 15:20:28;;;;;;;3.50;2.38;;;29.90;43.60;;;;;;4832765;29;45318;-57
2022/06/22 15:23:23;;;;;;;7.53;3.13;;;29.90;43.20;;;;;;4831467;29;45089;-57
2022/06/22 15:25:54;;;;;;;5.43;2.60;;;29.90;43.40;;;;;;4810088;29;45985;-59
2022/06/22 15:28:24;;;;;;;7.13;2.42;;;29.90;43.00;;;;;;4815021;29;45554;-59
2022/06/22 15:30:52;;;;;;;6.43;2.58;;;29.90;43.10;;;;;;4832449;29;45264;-57
2022/06/22 15:33:26;;;;;;;3.70;1.90;;;29.80;43.20;;;;;;4828769;29;45297;-58
2022/06/22 15:36:17;;;;;;;4.60;2.28;;;29.70;43.90;;;;;;4832206;29;46908;-59
2022/06/22 15:39:10;;;;;;;3.75;2.45;;;29.70;44.10;;;;;;4834501;29;45358;-55
2022/06/22 15:41:54;;;;;;;3.97;2.20;;;29.70;43.90;;;;;;4831498;29;45328;-58
2022/06/22 15:44:35;;;;;;;3.63;2.35;;;29.60;44.00;;;;;;4834197;29;44950;-60
2022/06/22 15:47:19;;;;;;;6.13;2.30;;;29.60;44.50;;;;;;4832685;29;45587;-58
2022/06/22 15:49:44;;;;;;;4.18;2.05;;;29.60;44.50;;;;;;4847580;29;45425;-58
2022/06/22 15:52:16;;;;;;;4.88;2.63;;;29.50;44.00;;;;;;4828243;29;45547;-60
2022/06/22 15:54:47;;;;;;;6.85;2.58;;;29.50;44.20;;;;;;4818521;29;45237;-60
2022/06/22 15:57:38;;;;;;;4.30;2.40;;;29.60;44.00;;;;;;4831517;29;45716;-60
2022/06/22 16:00:18;;;;;;;2.83;2.30;;;29.50;44.70;;;;;;4833808;29;45119;-59
2022/06/22 16:02:53;;;;;;;3.90;2.53;;;29.50;44.20;;;;;;4832708;29;44812;-61
2022/06/22 16:05:45;;;;;;;7.15;2.40;;;29.50;44.50;;;;;;4845926;29;45376;-60
2022/06/22 16:08:28;;;;;;;3.75;2.50;;;29.50;44.20;;;;;;4822409;29;46185;-60
2022/06/22 16:13:53;;;;;;;4.15;2.10;;;29.40;44.60;;;;;;4836808;29;44918;-61
2022/06/22 16:16:32;;;;;;;7.90;2.05;;;29.40;44.60;;;;;;4837710;29;45619;-58
2022/06/22 16:19:11;;;;;;;4.20;2.28;;;29.30;44.90;;;;;;4830611;29;46001;-55
2022/06/22 16:21:51;;;;;;;4.75;2.10;;;29.30;44.90;;;;;;4819167;29;45658;-57
2022/06/22 16:24:24;;;;;;;3.78;2.25;;;29.30;44.90;;;;;;4832423;29;45914;-57
2022/06/22 16:27:03;;;;;;;5.15;2.45;;;29.20;45.00;;;;;;4843421;29;45171;-56
2022/06/22 16:29:33;;;;;;;3.83;1.67;;;29.20;45.00;;;;;;4812441;29;45251;-57
2022/06/22 16:32:24;;;;;;;5.53;1.98;;;29.20;45.10;;;;;;4834942;29;45354;-59
2022/06/22 16:34:53;;;;;;;6.18;2.40;;;29.20;45.20;;;;;;4847155;29;46230;-58
2022/06/22 16:37:39;;;;;;;5.18;2.08;;;29.20;45.40;;;;;;4834789;29;45246;-59
2022/06/22 16:40:16;;;;;;;5.70;2.38;;;29.20;45.60;;;;;;4836008;29;45849;-59
2022/06/22 16:42:46;;;;;;;5.40;2.40;;;29.20;46.30;;;;;;4836795;29;45551;-57
2022/06/22 16:45:27;;;;;;;4.05;2.00;;;29.10;46.10;;;;;;4841999;29;45526;-59
2022/06/22 16:47:54;;;;;;;4.25;2.15;;;29.10;46.40;;;;;;4839703;29;45423;-58
2022/06/22 16:50:54;;;;;;;3.78;1.90;;;29.10;45.90;;;;;;4827870;29;46272;-58
2022/06/22 16:53:24;;;;;;;5.82;2.67;;;29.10;46.40;;;;;;4834157;29;45060;-61
2022/06/22 16:55:58;;;;;;;4.15;2.05;;;29.00;46.30;;;;;;4861024;29;45275;-57
2022/06/22 16:58:34;;;;;;;5.50;2.50;;;29.00;46.10;;;;;;4825354;29;45734;-59
2022/06/22 17:01:16;;;;;;;5.13;2.47;;;29.00;47.40;;;;;;4840913;29;47004;-59